Airfield :
LOGIN :

Register | Disclaimer

   EN    FR    IT 

 










Legend :    VFR   Marginal VFR   IFR   Intensive IFR   Very Intensive IFR
Visi :
Ceiling :
>= 8 km
>= 3000ft
5 to 8 km
1000 to 3000 ft
1500m to 5 km
500 to 1000 ft
800 to 1500m
200 to 500 ft
< 800m
< 200 ft
Symbols :   Thunderstorms  Fog  Heavy snow  Heavy precipitations  Wind > 20 kt
SIGMETs :     Misc.  Thunderstorms  Icing  Turbulence  Mountain Waves  Volcanic Ashes






- Airport Elevation : 1504 ft
- IATA code : PNA


LEPP - Noain Pamplona

CURRENT METAR :
  • 250130Z AUTO 31003KT 9999 BKN021 BKN056 11/08 Q1016

EXPIRED METARs :
  • 250030Z AUTO 31003KT 9999 FEW020 BKN028 BKN035 11/09 Q1017
  • 242330Z AUTO 33007KT 9999 FEW022 BKN046 BKN050 12/09 Q1017
  • 242300Z AUTO 33005KT 9999 BKN022 BKN028 12/09 Q1017

TAF TAF LEPP
Valid from the 24 at 21:00 until the 25 at 21:00 UTC


242000Z 2421/2521 34007KT 9999 SCT040 TX20/2514Z TN08/2505Z
PROB40
TEMPO 2421/2521 FEW035TCU
PROB30
TEMPO 2421/2509 3000 SHRA BKN010 SCT035TCU
PROB30
TEMPO 2500/2507 3000 BR BKN010



MET'MAP, your aeronautical weather chart ! - Copyright ORBIFLY December 2007 - Disclaimer

ORBIFLY MET'MAP TEAM :

Programming & Development : Alexandra Zaïnal
Original concept : Baudouin d'Aumeries
Technical & hardware support : Manuel Goepfert
Assistance : Marc-Olivier Méhu




SOURCES & CREDITS :

   NOAA